Terminal Aerodrome Forecast
Issued by NWS

Home | Current Version | Previous Version | Text Only | Print | Product List | Glossary On
Versions: 1 2 3 4 5 6 7 8 9 10 11 12 13
086
FTUS45 KRIW 240529
TAFRKS
TAF
KRKS 240529Z 2406/2506 26018G26KT P6SM SCT060
     FM241600 26022G30KT P6SM SCT080 BKN150
     FM242300 24014KT P6SM VCSH SCT015 OVC025
     FM250100 23011KT 3SM -SN OVC015
     FM250500 25016KT P6SM SCT025 BKN050=

USA.gov is the U.S. government's official web portal to all federal, state and local government web resources and services.